Time;durP1;ratioP1;P1;durP2;ratioP2;P2;SDS_P1;SDS_P2;PMS_P1;PMS_P2;Temp;Humidity;BMP_temperature;BMP_pressure;BME280_temperature;BME280_humidity;BME280_pressure;Samples;Min_cycle;Max_cycle;Signal;HPM_P1;HPM_P2
2023/09/30 00:00:36;;;;;;;3.20;2.00;;;;;;;20.96;49.50;102266.16;5028593;28;20570;-60
2023/09/30 00:03:02;;;;;;;2.80;2.50;;;;;;;20.93;48.79;102253.72;5013975;28;20044;-60
2023/09/30 00:05:27;;;;;;;4.38;1.98;;;;;;;20.92;49.26;102246.56;5013775;28;20398;-60
2023/09/30 00:07:53;;;;;;;4.95;2.00;;;;;;;20.87;48.94;102252.50;5013737;28;20030;-60
2023/09/30 00:10:18;;;;;;;7.18;3.08;;;;;;;20.87;49.75;102257.09;5013805;28;20095;-60
2023/09/30 00:12:45;;;;;;;5.65;2.20;;;;;;;20.76;49.13;102249.19;5013731;28;20026;-63
2023/09/30 00:15:10;;;;;;;3.78;2.72;;;;;;;20.82;48.99;102268.47;5012274;28;20042;-60
2023/09/30 00:17:36;;;;;;;4.55;2.60;;;;;;;20.81;49.28;102272.22;5014339;28;20042;-60
2023/09/30 00:20:03;;;;;;;5.78;3.25;;;;;;;20.79;49.46;102276.09;5014133;28;20034;-61
2023/09/30 00:22:29;;;;;;;4.53;2.63;;;;;;;20.78;49.64;102274.38;5014926;28;20042;-60
2023/09/30 00:24:54;;;;;;;6.40;2.92;;;;;;;20.77;49.70;102281.69;5014543;28;20033;-60
2023/09/30 00:27:20;;;;;;;8.38;3.15;;;;;;;20.76;49.95;102290.03;5013997;28;20121;-60
2023/09/30 00:29:45;;;;;;;5.28;2.55;;;;;;;20.76;49.35;102295.50;5013825;28;20402;-60
2023/09/30 00:32:11;;;;;;;6.43;2.90;;;;;;;20.75;50.04;102293.78;5013871;28;20030;-60
2023/09/30 00:34:36;;;;;;;3.47;2.05;;;;;;;20.76;49.40;102287.31;5012245;28;20049;-60
2023/09/30 00:37:02;;;;;;;7.95;2.65;;;;;;;20.75;49.95;102288.31;5013666;28;20498;-60
2023/09/30 00:39:30;;;;;;;3.35;2.25;;;;;;;20.74;49.64;102283.91;5012883;28;20030;-60
2023/09/30 00:41:59;;;;;;;7.35;2.20;;;;;;;20.73;49.87;102282.19;5012225;28;20037;-60
2023/09/30 00:44:27;;;;;;;6.93;2.60;;;;;;;20.71;49.34;102273.34;5012046;28;20489;-60
2023/09/30 00:46:54;;;;;;;4.60;2.47;;;;;;;20.65;50.11;102254.91;5013448;28;20038;-60
2023/09/30 00:49:21;;;;;;;6.40;3.00;;;;;;;20.69;49.68;102280.78;5012463;28;20405;-61
2023/09/30 00:51:47;;;;;;;7.65;2.75;;;;;;;20.68;50.29;102279.09;4996102;28;20101;-60
2023/09/30 00:54:12;;;;;;;4.00;2.65;;;;;;;20.66;50.04;102286.59;5012106;28;20117;-60
2023/09/30 00:56:44;;;;;;;8.27;3.40;;;;;;;20.66;49.61;102289.31;5012148;28;20034;-60
2023/09/30 00:59:10;;;;;;;6.97;3.72;;;;;;;20.67;50.04;102293.72;5012209;28;20025;-60
2023/09/30 01:01:36;;;;;;;7.75;3.22;;;;;;;20.65;49.27;102299.34;5012090;28;20404;-60
2023/09/30 01:04:01;;;;;;;6.95;3.50;;;;;;;20.64;49.31;102288.59;5012035;28;20401;-60
2023/09/30 01:06:27;;;;;;;6.13;3.70;;;;;;;20.63;49.55;102290.44;5012105;28;20030;-60
2023/09/30 01:08:52;;;;;;;7.45;3.88;;;;;;;20.63;49.92;102289.63;5011753;28;20052;-60
2023/09/30 01:11:18;;;;;;;7.10;4.40;;;;;;;20.67;49.73;102304.63;5011753;28;20439;-60
2023/09/30 01:13:44;;;;;;;8.90;4.10;;;;;;;20.68;49.83;102298.16;5012070;28;20038;-60
2023/09/30 01:16:11;;;;;;;7.43;4.18;;;;;;;20.68;50.35;102299.03;5013288;28;20084;-60
2023/09/30 01:18:37;;;;;;;8.35;3.60;;;;;;;20.69;50.51;102297.13;5013005;28;20030;-61
2023/09/30 01:21:04;;;;;;;11.25;5.18;;;;;;;20.70;49.56;102293.41;5013252;28;20494;-60
2023/09/30 01:23:30;;;;;;;9.02;3.88;;;;;;;20.68;50.20;102282.69;5012156;28;20117;-60
2023/09/30 01:25:56;;;;;;;10.30;4.70;;;;;;;20.71;49.90;102290.53;5012892;28;20033;-60
2023/09/30 01:28:22;;;;;;;8.07;4.60;;;;;;;20.72;49.87;102299.53;5015708;28;20042;-61
2023/09/30 01:30:48;;;;;;;7.78;4.13;;;;;;;20.72;49.61;102297.66;5016088;28;20033;-60
2023/09/30 01:33:14;;;;;;;9.13;4.32;;;;;;;20.69;50.08;102299.84;5017167;28;20389;-60
2023/09/30 01:35:39;;;;;;;10.18;4.70;;;;;;;20.71;49.54;102297.84;5015615;28;20404;-60
2023/09/30 01:38:04;;;;;;;9.43;3.90;;;;;;;20.71;50.64;102306.03;5017036;28;20034;-60
2023/09/30 01:40:30;;;;;;;9.77;4.15;;;;;;;20.69;50.29;102303.44;5017612;28;20528;-60
2023/09/30 01:42:56;;;;;;;6.25;3.90;;;;;;;20.69;50.22;102298.00;5016991;28;20038;-60
2023/09/30 01:45:21;;;;;;;7.88;4.18;;;;;;;20.68;49.62;102300.88;5016744;28;20442;-60
2023/09/30 01:47:47;;;;;;;6.95;3.63;;;;;;;20.66;50.04;102298.31;5016647;28;20037;-60
2023/09/30 01:50:12;;;;;;;4.63;3.00;;;;;;;20.66;50.41;102302.91;5017066;28;20057;-60
2023/09/30 01:52:38;;;;;;;9.23;4.05;;;;;;;20.65;49.66;102306.66;5015451;28;20034;-60
2023/09/30 01:55:04;;;;;;;15.25;4.32;;;;;;;20.61;50.03;102308.81;5016595;28;20030;-60
2023/09/30 01:57:29;;;;;;;8.77;3.67;;;;;;;20.61;50.18;102303.38;5016884;28;20018;-60
2023/09/30 01:59:54;;;;;;;6.30;4.03;;;;;;;20.60;50.47;102303.56;5015523;28;20057;-60
2023/09/30 02:02:20;;;;;;;6.53;3.72;;;;;;;20.58;50.87;102302.81;5016647;28;20518;-60
2023/09/30 02:04:45;;;;;;;7.38;4.03;;;;;;;20.55;49.85;102305.88;5016498;28;20030;-60
2023/09/30 02:07:10;;;;;;;6.88;3.55;;;;;;;20.55;49.87;102311.31;5016601;28;20413;-60
2023/09/30 02:09:36;;;;;;;6.20;3.45;;;;;;;20.53;49.95;102297.88;5016570;28;20085;-60
2023/09/30 02:12:02;;;;;;;7.43;3.28;;;;;;;20.51;49.92;102301.75;5016500;28;20033;-60
2023/09/30 02:14:27;;;;;;;7.63;3.10;;;;;;;20.47;50.20;102298.50;5015109;28;20041;-60
2023/09/30 02:16:53;;;;;;;5.32;3.60;;;;;;;20.46;50.52;102315.00;5016199;28;20038;-61
2023/09/30 02:19:19;;;;;;;5.60;3.15;;;;;;;20.43;50.10;102318.91;5016201;28;20052;-60
2023/09/30 02:21:44;;;;;;;6.70;4.20;;;;;;;20.40;50.15;102310.19;5016521;28;20036;-60
2023/09/30 02:24:10;;;;;;;4.75;2.95;;;;;;;20.38;49.75;102304.03;5016288;28;20034;-61
2023/09/30 02:26:35;;;;;;;4.72;2.42;;;;;;;20.33;50.13;102297.19;5014905;28;20502;-60
2023/09/30 02:29:01;;;;;;;9.45;2.95;;;;;;;20.30;49.82;102304.81;5016268;28;20121;-60
2023/09/30 02:31:26;;;;;;;3.85;1.67;;;;;;;20.25;50.55;102307.16;5016009;28;20506;-60
2023/09/30 02:33:51;;;;;;;4.28;1.90;;;;;;;20.20;49.20;102317.63;5014718;28;20073;-60
2023/09/30 02:36:17;;;;;;;3.38;1.80;;;;;;;20.18;49.41;102309.59;5016072;28;20076;-60
2023/09/30 02:38:43;;;;;;;1.88;1.50;;;;;;;20.14;49.53;102313.66;5014674;28;20038;-60
2023/09/30 02:41:08;;;;;;;8.23;1.70;;;;;;;20.10;50.13;102309.50;5015589;28;20113;-60
2023/09/30 02:43:34;;;;;;;1.75;1.38;;;;;;;20.09;49.84;102313.25;5014877;28;20108;-60
2023/09/30 02:45:59;;;;;;;2.83;1.67;;;;;;;20.06;49.73;102305.41;4997975;28;20116;-60
2023/09/30 02:48:25;;;;;;;2.17;1.67;;;;;;;20.05;50.20;102313.72;5015749;28;20121;-60
2023/09/30 02:50:50;;;;;;;4.72;1.98;;;;;;;20.02;50.05;102314.00;5014519;28;20462;-60
2023/09/30 02:53:15;;;;;;;4.00;1.85;;;;;;;20.02;49.89;102314.00;4998252;28;20038;-60
2023/09/30 02:55:42;;;;;;;5.85;2.78;;;;;;;20.01;49.92;102318.63;5014231;28;20195;-60
2023/09/30 02:58:10;;;;;;;13.77;3.20;;;;;;;19.99;49.83;102315.19;5015705;28;20034;-60
2023/09/30 03:00:37;;;;;;;6.72;3.35;;;;;;;19.99;50.02;102317.06;5015631;28;20041;-61
2023/09/30 03:03:03;;;;;;;8.57;3.45;;;;;;;19.95;49.84;102313.81;5014147;28;20109;-60
2023/09/30 03:05:32;;;;;;;7.75;3.58;;;;;;;19.96;49.92;102318.22;5014099;28;20494;-60
2023/09/30 03:07:57;;;;;;;2.90;2.38;;;;;;;19.92;49.79;102314.09;5014178;28;20038;-60
2023/09/30 03:10:26;;;;;;;4.93;1.50;;;;;;;19.88;49.82;102307.25;5015334;28;20103;-60
2023/09/30 03:12:55;;;;;;;4.75;1.73;;;;;;;19.83;49.92;102298.69;5015215;28;20129;-60
2023/09/30 03:15:21;;;;;;;1.63;1.30;;;;;;;19.81;49.89;102305.31;5015343;28;20409;-61
2023/09/30 03:17:46;;;;;;;2.42;1.70;;;;;;;19.77;49.54;102311.03;5015335;28;20030;-60
2023/09/30 03:20:14;;;;;;;4.13;1.35;;;;;;;19.74;50.02;102310.47;5013977;28;20041;-60
2023/09/30 03:22:42;;;;;;;4.13;2.20;;;;;;;19.71;49.77;102319.81;5015497;28;20041;-60
2023/09/30 03:25:11;;;;;;;3.47;2.20;;;;;;;19.68;49.63;102313.84;5015407;28;20085;-60
2023/09/30 03:27:38;;;;;;;3.85;2.40;;;;;;;19.64;49.82;102309.69;5015039;28;20053;-60
2023/09/30 03:30:08;;;;;;;4.25;2.50;;;;;;;19.63;49.81;102307.97;5014826;28;20038;-60
2023/09/30 03:32:36;;;;;;;2.97;1.90;;;;;;;19.63;49.90;102314.28;5013664;28;20509;-60
2023/09/30 03:35:02;;;;;;;6.28;3.13;;;;;;;19.61;50.15;102323.59;5014619;28;20399;-60
2023/09/30 03:37:27;;;;;;;6.65;3.03;;;;;;;19.58;49.42;102305.72;5013546;28;20033;-60
2023/09/30 03:39:54;;;;;;;6.88;3.50;;;;;;;19.60;49.82;102320.00;5014669;28;20112;-61
2023/09/30 03:42:19;;;;;;;7.85;3.22;;;;;;;19.60;49.92;102313.72;5013509;28;20413;-60
2023/09/30 03:44:45;;;;;;;9.63;4.10;;;;;;;19.60;49.87;102303.69;5015088;28;20034;-60
2023/09/30 03:47:11;;;;;;;5.13;3.22;;;;;;;19.61;49.61;102282.81;5014763;28;20045;-60
2023/09/30 03:49:38;;;;;;;5.38;3.03;;;;;;;19.59;49.69;102285.69;5014575;28;20084;-60
2023/09/30 03:52:04;;;;;;;5.97;3.00;;;;;;;19.57;50.05;102287.69;5014633;28;20038;-60
2023/09/30 03:54:29;;;;;;;11.15;3.72;;;;;;;19.56;50.30;102280.56;5014487;28;20045;-60
2023/09/30 03:56:55;;;;;;;9.13;4.78;;;;;;;19.54;49.97;102273.56;5013144;28;20533;-60
2023/09/30 03:59:20;;;;;;;9.57;3.88;;;;;;;19.53;50.02;102286.28;5014420;28;20034;-60
2023/09/30 04:01:47;;;;;;;7.68;5.00;;;;;;;19.54;49.97;102292.59;5014384;28;20069;-61
2023/09/30 04:04:13;;;;;;;9.02;4.47;;;;;;;19.54;50.26;102284.44;5014529;28;20061;-60
2023/09/30 04:06:39;;;;;;;12.52;4.30;;;;;;;19.53;50.06;102288.16;5014295;28;20124;-61
2023/09/30 04:09:09;;;;;;;13.15;4.65;;;;;;;19.55;50.41;102294.28;5014017;28;20474;-60
2023/09/30 04:11:38;;;;;;;9.00;3.88;;;;;;;19.54;50.27;102303.47;5014166;28;20039;-60
2023/09/30 04:14:05;;;;;;;9.77;4.63;;;;;;;19.55;50.14;102310.59;5012813;28;20036;-60
2023/09/30 04:16:32;;;;;;;6.57;3.72;;;;;;;19.56;50.36;102320.47;5014158;28;20064;-60
2023/09/30 04:18:57;;;;;;;6.53;4.53;;;;;;;19.57;50.49;102327.63;5012806;28;20037;-60
2023/09/30 04:21:22;;;;;;;12.57;5.38;;;;;;;19.59;49.98;102323.75;5014248;28;20030;-60
2023/09/30 04:23:49;;;;;;;9.30;5.38;;;;;;;19.61;50.63;102307.28;5013217;28;20041;-60
2023/09/30 04:26:15;;;;;;;12.48;5.50;;;;;;;19.64;50.75;102309.69;5012920;28;20109;-60
2023/09/30 04:28:40;;;;;;;10.52;4.40;;;;;;;19.62;50.16;102311.72;5013834;28;20113;-61
2023/09/30 04:31:07;;;;;;;12.63;5.28;;;;;;;19.65;50.65;102305.97;5012576;28;20033;-60
2023/09/30 04:33:35;;;;;;;10.95;5.97;;;;;;;19.68;50.62;102322.00;5013692;28;20042;-60
2023/09/30 04:36:01;;;;;;;16.77;6.03;;;;;;;19.68;51.23;102314.66;5013796;28;20088;-60
2023/09/30 04:38:27;;;;;;;10.90;4.65;;;;;;;19.72;50.82;102315.22;5013830;28;20022;-60
2023/09/30 04:40:54;;;;;;;9.98;4.82;;;;;;;19.73;50.58;102306.06;5012322;28;20038;-60
2023/09/30 04:43:20;;;;;;;10.10;4.70;;;;;;;19.76;50.72;102325.63;4996335;28;20034;-60
2023/09/30 04:45:46;;;;;;;10.18;4.30;;;;;;;19.74;50.52;102318.63;5013529;28;20057;-60
2023/09/30 04:48:12;;;;;;;6.95;4.05;;;;;;;19.74;50.42;102310.47;5013407;28;20065;-60
2023/09/30 04:50:41;;;;;;;8.05;3.63;;;;;;;19.73;50.85;102315.09;5013541;28;20026;-60
2023/09/30 04:53:07;;;;;;;6.30;3.15;;;;;;;19.71;50.58;102306.22;5012577;28;20041;-60
2023/09/30 04:55:33;;;;;;;8.10;3.45;;;;;;;19.70;50.93;102309.09;5013431;28;20068;-60
2023/09/30 04:57:58;;;;;;;10.35;4.40;;;;;;;19.69;50.36;102307.38;5013399;28;20030;-60
2023/09/30 05:00:27;;;;;;;7.40;4.18;;;;;;;19.69;50.51;102318.25;5013070;28;20045;-60
2023/09/30 05:02:55;;;;;;;15.02;5.15;;;;;;;19.70;50.31;102319.97;5012759;28;20112;-60
2023/09/30 05:05:20;;;;;;;6.68;4.28;;;;;;;19.72;50.36;102324.25;5014044;28;20044;-60
2023/09/30 05:07:49;;;;;;;13.40;4.93;;;;;;;19.75;50.80;102317.66;5013526;28;20034;-60
2023/09/30 05:10:15;;;;;;;13.07;5.38;;;;;;;19.75;50.66;102309.47;5013181;28;20041;-60
2023/09/30 05:12:45;;;;;;;11.95;5.78;;;;;;;19.78;50.88;102317.34;5012132;28;20053;-61
2023/09/30 05:15:19;;;;;;;9.73;5.28;;;;;;;19.79;50.75;102319.06;5013403;28;20029;-60
2023/09/30 05:17:45;;;;;;;9.85;5.25;;;;;;;19.79;50.88;102316.34;5013238;28;20033;-60
2023/09/30 05:20:12;;;;;;;9.50;4.25;;;;;;;19.80;51.11;102328.91;5013061;28;20034;-60
2023/09/30 05:22:39;;;;;;;13.07;5.30;;;;;;;19.81;50.29;102332.50;5013186;28;20108;-60
2023/09/30 05:25:04;;;;;;;9.75;4.40;;;;;;;19.80;50.59;102333.50;5013245;28;20030;-60
2023/09/30 05:27:30;;;;;;;7.88;4.10;;;;;;;19.79;50.96;102307.31;5013279;28;20041;-60
2023/09/30 05:29:55;;;;;;;10.85;4.82;;;;;;;19.79;50.94;102296.44;5013618;28;20034;-60
2023/09/30 05:32:22;;;;;;;14.23;3.92;;;;;;;19.75;50.38;102307.63;5013410;28;20038;-60
2023/09/30 05:34:48;;;;;;;10.55;3.85;;;;;;;19.65;50.40;102305.97;5011944;28;20490;-60
2023/09/30 05:37:13;;;;;;;3.95;3.10;;;;;;;19.66;49.96;102321.25;5013023;28;20049;-60
2023/09/30 05:39:39;;;;;;;7.35;3.55;;;;;;;19.63;50.39;102329.72;5013253;28;20030;-60
2023/09/30 05:42:05;;;;;;;7.88;4.15;;;;;;;19.59;50.28;102347.38;5013197;28;20026;-60
2023/09/30 05:44:31;;;;;;;9.75;3.83;;;;;;;19.57;50.59;102352.09;5012190;28;20041;-60
2023/09/30 05:46:57;;;;;;;8.48;4.70;;;;;;;19.55;50.88;102332.34;5012974;28;20030;-60
2023/09/30 05:49:23;;;;;;;10.00;5.10;;;;;;;19.53;50.65;102339.81;5013014;28;20038;-60
2023/09/30 05:51:50;;;;;;;9.75;5.43;;;;;;;19.51;51.05;102339.97;5013591;28;20117;-60
2023/09/30 05:54:16;;;;;;;8.40;4.38;;;;;;;19.52;50.27;102343.50;5014934;28;20102;-59
2023/09/30 05:56:43;;;;;;;10.63;4.45;;;;;;;19.52;50.45;102355.25;5015130;28;20535;-60
2023/09/30 05:59:08;;;;;;;9.32;4.75;;;;;;;19.51;50.59;102347.25;5016821;28;20475;-59
2023/09/30 06:01:35;;;;;;;7.97;4.15;;;;;;;19.48;50.50;102331.25;5016361;28;20022;-60
2023/09/30 06:04:01;;;;;;;11.75;3.60;;;;;;;19.47;50.81;102334.97;5013497;28;20117;-60
2023/09/30 06:06:29;;;;;;;12.57;4.28;;;;;;;19.45;50.83;102340.56;5016711;28;20057;-59
2023/09/30 06:08:57;;;;;;;8.02;4.00;;;;;;;19.42;50.53;102340.84;5014981;28;20186;-60
2023/09/30 06:11:24;;;;;;;7.60;3.63;;;;;;;19.45;50.95;102342.41;5015301;28;20045;-63
2023/09/30 06:13:53;;;;;;;6.35;3.60;;;;;;;19.46;51.13;102347.69;5018320;28;20037;-60
2023/09/30 06:16:19;;;;;;;6.28;4.03;;;;;;;19.56;49.81;102361.25;5016585;28;20502;-60
2023/09/30 06:18:45;;;;;;;9.25;5.13;;;;;;;19.65;50.20;102366.63;5016461;28;20098;-60
2023/09/30 06:21:11;;;;;;;12.57;4.50;;;;;;;19.77;50.08;102367.28;5016524;28;20034;-60
2023/09/30 06:23:36;;;;;;;8.77;4.93;;;;;;;19.88;50.06;102361.63;5016332;28;20445;-60
2023/09/30 06:26:02;;;;;;;7.78;4.30;;;;;;;19.98;49.62;102362.47;5017101;28;20152;-60
2023/09/30 06:28:31;;;;;;;5.15;3.53;;;;;;;20.10;50.05;102349.50;5016372;28;20073;-60
2023/09/30 06:30:57;;;;;;;9.82;3.88;;;;;;;20.20;50.55;102359.28;5016587;28;20030;-60
2023/09/30 06:33:22;;;;;;;3.85;2.67;;;;;;;20.31;49.53;102359.09;5016318;28;20073;-60
2023/09/30 06:35:51;;;;;;;9.23;3.70;;;;;;;20.41;50.07;102363.63;5016518;28;20037;-60
2023/09/30 06:38:19;;;;;;;5.93;3.10;;;;;;;20.52;50.15;102357.94;5014855;28;20045;-60
2023/09/30 06:40:48;;;;;;;8.23;3.38;;;;;;;20.66;50.02;102362.84;5014711;28;20034;-60
2023/09/30 06:43:15;;;;;;;10.55;4.53;;;;;;;20.77;50.14;102349.78;5016046;28;20034;-60
2023/09/30 06:45:41;;;;;;;10.57;4.00;;;;;;;20.91;49.39;102351.09;5016053;28;20173;-60
2023/09/30 06:48:12;;;;;;;9.95;5.10;;;;;;;21.07;49.89;102358.53;5014876;28;20085;-60
2023/09/30 06:50:43;;;;;;;14.80;5.47;;;;;;;21.22;49.12;102354.22;5017829;28;20026;-61
2023/09/30 06:53:09;;;;;;;8.30;4.63;;;;;;;21.40;49.32;102353.16;5016004;28;20048;-60
2023/09/30 06:55:36;;;;;;;12.68;5.07;;;;;;;21.58;49.38;102365.88;5015917;28;20030;-60
2023/09/30 06:58:03;;;;;;;13.10;5.95;;;;;;;21.75;49.30;102375.78;5016215;28;20038;-60
2023/09/30 07:00:29;;;;;;;12.73;6.15;;;;;;;21.92;50.11;102373.00;5016370;28;20036;-60
2023/09/30 07:02:54;;;;;;;16.70;5.30;;;;;;;22.10;49.97;102378.38;5016407;28;20468;-60
2023/09/30 07:05:19;;;;;;;10.75;6.25;;;;;;;22.26;48.92;102378.41;5016236;28;20040;-60
2023/09/30 07:07:45;;;;;;;12.38;6.40;;;;;;;22.41;50.06;102384.91;5016297;28;20038;-61
2023/09/30 07:10:11;;;;;;;11.68;5.82;;;;;;;22.55;49.63;102389.72;5016685;28;20508;-60
2023/09/30 07:12:37;;;;;;;15.70;5.90;;;;;;;22.72;49.13;102397.97;5015556;28;20117;-60
2023/09/30 07:15:03;;;;;;;13.38;6.68;;;;;;;22.89;49.48;102400.50;5015386;28;20076;-60
2023/09/30 07:17:28;;;;;;;17.10;7.70;;;;;;;23.16;49.58;102400.16;5015230;28;20045;-60
2023/09/30 07:19:54;;;;;;;14.82;8.02;;;;;;;23.23;49.27;102403.03;5015111;28;20058;-61
2023/09/30 07:22:19;;;;;;;16.20;7.10;;;;;;;23.14;48.57;102413.13;5014946;28;20041;-61
2023/09/30 07:24:44;;;;;;;16.15;7.38;;;;;;;23.01;48.77;102406.47;5014467;28;20037;-60
2023/09/30 07:27:10;;;;;;;14.98;7.68;;;;;;;22.86;49.60;102414.53;5014919;28;20125;-60
2023/09/30 07:29:35;;;;;;;15.40;8.10;;;;;;;22.72;49.74;102419.81;5013446;28;20049;-62
2023/09/30 07:32:01;;;;;;;13.30;6.63;;;;;;;22.59;49.92;102423.00;5015002;28;20069;-60
2023/09/30 07:34:26;;;;;;;14.38;6.97;;;;;;;22.46;49.85;102418.03;5014662;28;20050;-60
2023/09/30 07:36:52;;;;;;;16.58;8.35;;;;;;;22.42;49.12;102426.72;5013745;28;20042;-60
2023/09/30 07:39:17;;;;;;;17.23;7.70;;;;;;;22.32;50.32;102432.34;5014757;28;20034;-60
2023/09/30 07:41:43;;;;;;;15.77;7.82;;;;;;;22.23;49.95;102433.34;5014794;28;20041;-60
2023/09/30 07:44:09;;;;;;;26.90;9.52;;;;;;;22.16;49.40;102435.03;5014694;28;20038;-61
2023/09/30 07:46:35;;;;;;;19.35;8.82;;;;;;;22.12;49.48;102439.09;5014634;28;20037;-60
2023/09/30 07:49:00;;;;;;;28.98;8.55;;;;;;;22.10;50.44;102452.06;5012194;28;20038;-61
2023/09/30 07:51:26;;;;;;;21.10;9.38;;;;;;;22.03;49.68;102449.13;5014560;28;20117;-62
2023/09/30 07:53:52;;;;;;;17.63;7.80;;;;;;;21.99;50.22;102452.34;4996887;28;20034;-62
2023/09/30 07:56:17;;;;;;;16.58;8.07;;;;;;;21.96;50.39;102447.22;5014541;28;20034;-60
2023/09/30 07:58:43;;;;;;;18.08;8.73;;;;;;;21.98;49.82;102453.38;5014527;28;20029;-61
2023/09/30 08:01:08;;;;;;;18.90;8.75;;;;;;;22.04;50.76;102450.00;5014394;28;20494;-61
2023/09/30 08:03:34;;;;;;;21.38;9.88;;;;;;;22.10;50.18;102443.88;5014292;28;20441;-61
2023/09/30 08:06:00;;;;;;;19.95;8.93;;;;;;;22.15;50.17;102446.09;5014189;28;20152;-62
2023/09/30 08:08:25;;;;;;;14.88;8.05;;;;;;;22.10;50.27;102449.34;5014242;28;20117;-61
2023/09/30 08:10:55;;;;;;;18.65;8.60;;;;;;;22.10;50.35;102446.59;5014173;28;20030;-61
2023/09/30 08:13:21;;;;;;;15.63;7.10;;;;;;;22.20;50.39;102452.78;5014087;28;20030;-61
2023/09/30 08:15:46;;;;;;;14.48;7.13;;;;;;;22.34;50.13;102449.41;5014133;28;20034;-62
2023/09/30 08:18:12;;;;;;;13.80;7.45;;;;;;;22.45;51.01;102451.81;5014161;28;20041;-62
2023/09/30 08:20:37;;;;;;;14.50;7.10;;;;;;;22.69;49.66;102450.19;5014242;28;20053;-61
2023/09/30 08:23:03;;;;;;;12.15;6.35;;;;;;;22.84;49.68;102446.63;5013985;28;20379;-61
2023/09/30 08:25:28;;;;;;;14.48;6.55;;;;;;;22.83;49.87;102447.66;5014173;28;20041;-61
2023/09/30 08:27:54;;;;;;;9.80;5.88;;;;;;;22.87;50.32;102449.03;5012809;28;20058;-61
2023/09/30 08:30:20;;;;;;;11.10;5.57;;;;;;;22.96;50.09;102441.69;5014054;28;20065;-61
2023/09/30 08:32:46;;;;;;;11.80;5.43;;;;;;;23.00;50.01;102443.88;5014171;28;20041;-61
2023/09/30 08:35:14;;;;;;;11.43;6.00;;;;;;;23.11;50.04;102445.44;5013937;28;20061;-62
2023/09/30 08:37:39;;;;;;;12.75;5.70;;;;;;;23.14;50.06;102439.63;5013665;28;20054;-63
2023/09/30 08:40:06;;;;;;;9.77;5.85;;;;;;;23.28;49.98;102447.16;4996126;28;20168;-61
2023/09/30 08:42:33;;;;;;;11.15;5.90;;;;;;;23.62;49.53;102444.19;5013853;28;20050;-62
2023/09/30 08:44:59;;;;;;;14.00;7.00;;;;;;;23.67;49.32;102437.16;5013738;28;20041;-61
2023/09/30 08:47:30;;;;;;;12.63;5.63;;;;;;;23.96;49.17;102435.69;5013786;28;20433;-61
2023/09/30 08:50:05;;;;;;;12.07;5.85;;;;;;;23.83;49.05;102436.28;5014043;28;20041;-61
2023/09/30 08:52:32;;;;;;;11.50;5.78;;;;;;;23.97;48.96;102442.88;5015103;28;20038;-63
2023/09/30 08:54:57;;;;;;;13.23;5.97;;;;;;;24.33;47.82;102444.09;5013986;28;20034;-61
2023/09/30 08:57:24;;;;;;;15.10;5.60;;;;;;;24.46;47.78;102438.88;5012317;28;20512;-61
2023/09/30 08:59:50;;;;;;;8.15;4.90;;;;;;;24.54;47.71;102438.84;5009141;28;20047;-61
2023/09/30 09:02:16;;;;;;;11.68;6.43;;;;;;;24.74;47.82;102433.72;5012583;28;20032;-61
2023/09/30 09:04:43;;;;;;;12.32;6.72;;;;;;;24.78;47.44;102435.06;4996056;28;20381;-61
2023/09/30 09:07:08;;;;;;;11.82;6.38;;;;;;;25.25;46.77;102438.47;5012169;28;20044;-61
2023/09/30 09:09:33;;;;;;;13.43;5.80;;;;;;;25.77;46.06;102424.72;5013472;28;20108;-59
2023/09/30 09:11:59;;;;;;;9.20;5.93;;;;;;;26.10;46.02;102424.31;5013720;28;20365;-59
2023/09/30 09:14:38;;;;;;;8.32;5.80;;;;;;;26.54;45.89;102427.84;5012511;28;20026;-60
2023/09/30 09:17:05;;;;;;;12.93;6.18;;;;;;;26.65;45.83;102418.22;5013681;28;20046;-60
2023/09/30 09:19:30;;;;;;;11.82;6.13;;;;;;;27.10;44.71;102426.94;5013492;28;20092;-60
2023/09/30 09:22:04;;;;;;;9.77;6.20;;;;;;;27.53;45.34;102430.47;5013297;28;20065;-60
2023/09/30 09:24:42;;;;;;;10.13;6.43;;;;;;;28.12;43.70;102429.97;5011957;28;20049;-60
2023/09/30 09:27:11;;;;;;;9.85;6.22;;;;;;;29.01;42.56;102425.97;5012017;28;20117;-60
2023/09/30 09:29:38;;;;;;;11.43;6.05;;;;;;;31.01;39.70;102436.81;5013042;28;20042;-59
2023/09/30 09:32:11;;;;;;;8.25;5.68;;;;;;;31.05;40.15;102431.66;5012047;28;20034;-60
2023/09/30 09:34:37;;;;;;;9.73;6.50;;;;;;;31.03;40.02;102433.81;5012717;28;20421;-59
2023/09/30 09:37:19;;;;;;;6.95;4.95;;;;;;;31.08;40.37;102425.66;5012987;28;20042;-60
2023/09/30 09:39:52;;;;;;;8.80;5.55;;;;;;;31.23;40.14;102417.03;5013178;28;20494;-60
2023/09/30 09:42:44;;;;;;;9.43;5.85;;;;;;;31.53;40.30;102429.97;5013151;28;20102;-60
2023/09/30 09:45:10;;;;;;;11.57;6.35;;;;;;;31.76;39.94;102445.09;5012541;28;20092;-60
2023/09/30 09:47:35;;;;;;;6.72;4.75;;;;;;;31.95;38.72;102450.41;5011657;28;20437;-60
2023/09/30 09:50:03;;;;;;;7.03;5.18;;;;;;;32.19;39.31;102448.66;5016416;28;20038;-60
2023/09/30 09:52:29;;;;;;;10.18;5.38;;;;;;;32.47;37.86;102454.44;5016728;28;20112;-60
2023/09/30 09:54:55;;;;;;;7.63;4.40;;;;;;;32.72;37.29;102457.97;5015506;28;20617;-61
2023/09/30 09:57:20;;;;;;;8.48;6.05;;;;;;;32.99;37.43;102463.13;5015343;28;20521;-60
2023/09/30 09:59:47;;;;;;;9.50;4.50;;;;;;;33.26;37.20;102450.50;5015368;28;20406;-60
2023/09/30 10:02:14;;;;;;;9.02;6.00;;;;;;;33.45;37.27;102451.25;5016681;28;20038;-61
2023/09/30 10:04:44;;;;;;;8.32;5.38;;;;;;;33.65;35.88;102457.31;5016798;28;20057;-60
2023/09/30 10:07:31;;;;;;;9.60;6.00;;;;;;;33.90;36.28;102469.84;5015344;28;20120;-61
2023/09/30 10:09:59;;;;;;;7.63;5.50;;;;;;;34.01;35.71;102461.72;5014916;28;20049;-60
2023/09/30 10:12:25;;;;;;;7.60;5.18;;;;;;;34.12;35.30;102455.31;5015107;28;20021;-61
2023/09/30 10:14:52;;;;;;;7.75;5.72;;;;;;;34.28;35.65;102457.34;4998827;28;20505;-60
2023/09/30 10:17:17;;;;;;;7.15;4.55;;;;;;;34.41;34.80;102455.13;5016130;28;20033;-60
2023/09/30 10:20:09;;;;;;;9.73;5.30;;;;;;;34.56;34.65;102443.44;5016774;28;20021;-61
2023/09/30 10:22:35;;;;;;;10.48;4.78;;;;;;;34.66;34.94;102443.66;5016263;28;20053;-61
2023/09/30 10:25:01;;;;;;;6.32;4.20;;;;;;;34.77;34.88;102444.66;5016358;28;20034;-60
2023/09/30 10:27:32;;;;;;;9.23;4.97;;;;;;;34.89;34.38;102440.75;5014663;28;20122;-60
2023/09/30 10:30:18;;;;;;;5.78;4.30;;;;;;;35.08;33.77;102445.00;5016010;28;20481;-60
2023/09/30 10:32:50;;;;;;;10.85;4.88;;;;;;;35.05;33.96;102448.25;5015903;28;20387;-61
2023/09/30 10:35:42;;;;;;;7.40;4.70;;;;;;;35.16;34.00;102440.09;5015847;28;20058;-61
2023/09/30 10:38:27;;;;;;;6.60;4.43;;;;;;;35.31;33.72;102443.13;4998373;28;20030;-61
2023/09/30 10:40:54;;;;;;;5.93;4.47;;;;;;;35.44;34.04;102445.56;5015862;28;20122;-60
2023/09/30 10:43:32;;;;;;;7.63;4.80;;;;;;;35.56;33.37;102451.91;5015867;28;20040;-61
2023/09/30 10:45:58;;;;;;;7.40;4.70;;;;;;;35.72;33.15;102451.03;5015709;28;20514;-62
2023/09/30 10:48:32;;;;;;;7.63;4.75;;;;;;;35.87;32.89;102440.09;5016120;28;20057;-61
2023/09/30 10:51:10;;;;;;;7.85;4.43;;;;;;;36.01;32.65;102443.34;5014849;28;20038;-62
2023/09/30 10:53:45;;;;;;;6.72;3.63;;;;;;;36.07;32.45;102445.97;5014739;28;20034;-61
2023/09/30 10:56:10;;;;;;;7.72;4.90;;;;;;;36.07;32.44;102429.22;5015736;28;20038;-61
2023/09/30 10:58:46;;;;;;;5.18;4.15;;;;;;;36.18;31.81;102431.03;5016232;28;20076;-60
2023/09/30 11:01:13;;;;;;;8.70;4.05;;;;;;;36.33;31.71;102432.31;5013273;28;20046;-61
2023/09/30 11:03:43;;;;;;;6.95;3.47;;;;;;;36.48;31.58;102424.09;5014247;28;20044;-61
2023/09/30 11:06:20;;;;;;;6.60;3.30;;;;;;;36.60;31.18;102419.25;5015344;28;20052;-60
2023/09/30 11:08:58;;;;;;;6.10;3.35;;;;;;;36.71;30.70;102413.47;5015346;28;20034;-61
2023/09/30 11:11:34;;;;;;;6.25;3.63;;;;;;;36.82;31.10;102400.47;5014251;28;20041;-61
2023/09/30 11:13:59;;;;;;;4.28;3.13;;;;;;;37.00;30.92;102410.41;5015546;28;20034;-60
2023/09/30 11:16:25;;;;;;;4.13;2.80;;;;;;;37.05;30.96;102414.06;5015331;28;20034;-61
2023/09/30 11:18:53;;;;;;;5.22;2.88;;;;;;;37.19;30.74;102408.88;5015046;28;20069;-61
2023/09/30 11:21:19;;;;;;;5.15;2.75;;;;;;;37.33;30.42;102415.69;5015648;28;20056;-61